createdAt,value
2017-09-19T00:00:10.554Z,6.03
2017-09-19T00:02:38.095Z,4.27
2017-09-19T00:05:05.668Z,4.93
2017-09-19T00:07:33.227Z,7.13
2017-09-19T00:10:00.821Z,4.63
2017-09-19T00:12:28.405Z,5.10
2017-09-19T00:14:55.974Z,4.97
2017-09-19T00:17:24.313Z,4.43
2017-09-19T00:19:51.866Z,4.43
2017-09-19T00:22:19.432Z,6.03
2017-09-19T00:24:46.970Z,4.30
2017-09-19T00:27:14.529Z,4.53
2017-09-19T00:29:42.078Z,3.83
2017-09-19T00:32:09.628Z,4.20
2017-09-19T00:34:37.187Z,4.93
2017-09-19T00:37:04.731Z,7.80
2017-09-19T00:39:33.061Z,4.00
2017-09-19T00:42:00.605Z,4.13
2017-09-19T00:44:28.169Z,4.40
2017-09-19T00:46:55.773Z,7.00
2017-09-19T00:49:23.335Z,5.20
2017-09-19T00:51:50.882Z,6.03
2017-09-19T00:54:18.478Z,6.77
2017-09-19T00:56:46.789Z,7.00
2017-09-19T00:59:15.334Z,4.60
2017-09-19T01:01:42.912Z,4.50
2017-09-19T01:04:10.484Z,5.27
2017-09-19T01:06:38.058Z,4.27
2017-09-19T01:09:05.610Z,4.50
2017-09-19T01:11:33.176Z,4.57
2017-09-19T01:14:00.772Z,4.90
2017-09-19T01:16:28.353Z,4.37
2017-09-19T01:18:56.668Z,4.50
2017-09-19T01:21:24.257Z,4.67
2017-09-19T01:23:51.799Z,5.47
2017-09-19T01:26:19.357Z,5.20
2017-09-19T01:28:46.909Z,6.13
2017-09-19T01:31:14.494Z,5.33
2017-09-19T01:33:42.045Z,5.63
2017-09-19T01:36:09.606Z,6.53
2017-09-19T01:38:37.151Z,9.23
2017-09-19T01:41:04.730Z,5.70
2017-09-19T01:43:32.303Z,7.23
2017-09-19T01:45:59.866Z,5.77
2017-09-19T01:48:27.441Z,6.80
2017-09-19T01:50:55.002Z,5.90
2017-09-19T01:53:23.334Z,7.10
2017-09-19T01:55:50.902Z,5.47
2017-09-19T01:58:18.461Z,8.20
2017-09-19T02:00:46.034Z,5.53
2017-09-19T02:03:13.614Z,5.57
2017-09-19T02:05:41.194Z,6.03
2017-09-19T02:08:09.513Z,6.17
2017-09-19T02:10:37.074Z,5.20
2017-09-19T02:13:04.630Z,7.43
2017-09-19T02:15:32.194Z,6.83
2017-09-19T02:17:59.745Z,5.13
2017-09-19T02:20:27.301Z,6.00
2017-09-19T02:22:54.861Z,5.57
2017-09-19T02:25:22.451Z,6.03
2017-09-19T02:27:50.014Z,4.63
2017-09-19T02:30:17.558Z,6.70
2017-09-19T02:32:45.130Z,7.27
2017-09-19T02:35:12.708Z,4.93
2017-09-19T02:37:40.254Z,4.53
2017-09-19T02:40:07.811Z,5.30
2017-09-19T02:42:35.372Z,4.90
2017-09-19T02:45:02.930Z,4.73
2017-09-19T02:47:30.498Z,4.87
2017-09-19T02:49:58.049Z,5.40
2017-09-19T02:52:25.606Z,5.43
2017-09-19T02:54:53.166Z,4.90
2017-09-19T02:57:20.729Z,5.40
2017-09-19T02:59:48.309Z,5.53
2017-09-19T03:02:16.655Z,5.40
2017-09-19T03:04:44.209Z,5.90
2017-09-19T03:07:11.796Z,5.90
2017-09-19T03:09:39.341Z,4.90
2017-09-19T03:12:06.891Z,5.20
2017-09-19T03:14:34.447Z,9.67
2017-09-19T03:17:02.014Z,5.90
2017-09-19T03:19:29.582Z,4.90
2017-09-19T03:21:57.145Z,6.80
2017-09-19T03:24:24.742Z,5.20
2017-09-19T03:26:53.056Z,6.20
2017-09-19T03:29:20.605Z,5.10
2017-09-19T03:31:48.151Z,5.83
2017-09-19T03:34:15.724Z,5.30
2017-09-19T03:36:43.291Z,6.80
2017-09-19T03:39:10.866Z,4.60
2017-09-19T03:41:38.441Z,4.57
2017-09-19T03:44:06.007Z,5.20
2017-09-19T03:46:33.552Z,4.60
2017-09-19T03:49:01.117Z,5.00
2017-09-19T03:51:28.682Z,5.30
2017-09-19T03:53:56.238Z,4.43
2017-09-19T03:56:23.800Z,4.80
2017-09-19T03:58:51.345Z,4.77
2017-09-19T04:01:18.888Z,5.00
2017-09-19T04:03:46.452Z,5.47
2017-09-19T04:06:14.022Z,5.07
2017-09-19T04:08:41.584Z,5.20
2017-09-19T04:11:09.144Z,5.40
2017-09-19T04:13:36.695Z,4.93
2017-09-19T04:16:04.262Z,5.30
2017-09-19T04:18:31.826Z,4.27
2017-09-19T04:20:59.376Z,5.77
2017-09-19T04:23:26.935Z,7.70
2017-09-19T04:25:54.556Z,4.53
2017-09-19T04:28:22.912Z,4.50
2017-09-19T04:30:53.616Z,3.73
2017-09-19T04:33:21.205Z,4.73
2017-09-19T04:35:48.820Z,4.20
2017-09-19T04:38:16.406Z,6.03
2017-09-19T04:40:43.976Z,4.37
2017-09-19T04:43:11.573Z,4.63
2017-09-19T04:45:39.159Z,5.67
2017-09-19T04:48:06.751Z,4.23
2017-09-19T04:50:34.338Z,5.47
2017-09-19T04:53:02.710Z,7.50
2017-09-19T04:55:31.103Z,6.50
2017-09-19T04:57:59.512Z,5.53
2017-09-19T05:00:27.090Z,5.80
2017-09-19T05:02:54.687Z,6.47
2017-09-19T05:05:22.331Z,6.70
2017-09-19T05:07:49.944Z,7.13
2017-09-19T05:10:17.535Z,5.20
2017-09-19T05:12:45.151Z,7.97
2017-09-19T05:15:12.753Z,6.50
2017-09-19T05:17:57.337Z,5.83
2017-09-19T05:20:44.203Z,6.80
2017-09-19T05:23:26.988Z,7.80
2017-09-19T05:25:55.343Z,9.33
2017-09-19T05:28:22.918Z,8.90
2017-09-19T05:30:50.473Z,9.80
2017-09-19T05:33:18.046Z,9.73
2017-09-19T05:35:45.593Z,8.90
2017-09-19T05:38:13.179Z,8.80
2017-09-19T05:40:40.749Z,8.10
2017-09-19T05:43:09.095Z,11.60
2017-09-19T05:45:36.668Z,15.93
2017-09-19T05:48:04.257Z,7.50
2017-09-19T05:50:33.542Z,11.07
2017-09-19T05:53:01.629Z,8.57
2017-09-19T05:55:29.219Z,12.30
2017-09-19T05:57:56.780Z,8.77
2017-09-19T06:00:24.346Z,9.80
2017-09-19T06:02:51.910Z,8.50
2017-09-19T06:05:19.481Z,13.03
2017-09-19T06:07:47.038Z,10.40
2017-09-19T06:10:14.592Z,11.80
2017-09-19T06:12:42.165Z,10.83
2017-09-19T06:15:09.717Z,9.63
2017-09-19T06:17:37.265Z,10.40
2017-09-19T06:20:04.814Z,14.73
2017-09-19T06:22:32.348Z,10.33
2017-09-19T06:25:00.713Z,11.53
2017-09-19T06:27:29.053Z,22.83
2017-09-19T06:29:56.648Z,16.63
2017-09-19T06:32:24.973Z,11.33
2017-09-19T06:34:52.551Z,11.30
2017-09-19T06:37:20.106Z,10.40
2017-09-19T06:39:47.670Z,9.50
2017-09-19T06:42:15.254Z,10.30
2017-09-19T06:44:42.802Z,12.03
2017-09-19T06:47:10.399Z,10.87
2017-09-19T06:49:38.708Z,16.40
2017-09-19T06:52:06.278Z,11.87
2017-09-19T06:54:33.840Z,10.43
2017-09-19T06:57:01.405Z,10.57
2017-09-19T06:59:28.957Z,18.20
2017-09-19T07:01:56.533Z,11.13
2017-09-19T07:04:24.090Z,11.60
2017-09-19T07:06:51.650Z,11.17
2017-09-19T07:09:19.197Z,11.13
2017-09-19T07:11:52.751Z,12.20
2017-09-19T07:14:20.401Z,11.73
2017-09-19T07:16:49.770Z,12.57
2017-09-19T07:19:17.372Z,10.07
2017-09-19T07:21:45.701Z,12.57
2017-09-19T07:24:13.266Z,9.80
2017-09-19T07:26:40.846Z,8.03
2017-09-19T07:29:10.095Z,11.00
2017-09-19T07:31:37.657Z,9.60
2017-09-19T07:34:05.250Z,12.20
2017-09-19T07:36:32.803Z,10.87
2017-09-19T07:39:00.403Z,10.60
2017-09-19T07:41:28.735Z,10.27
2017-09-19T07:43:56.322Z,11.03
2017-09-19T07:46:23.880Z,9.80
2017-09-19T07:48:51.453Z,11.30
2017-09-19T07:51:19.026Z,11.03
2017-09-19T07:53:47.357Z,14.67
2017-09-19T07:56:14.937Z,11.80
2017-09-19T07:58:42.513Z,12.47
2017-09-19T08:01:10.106Z,10.60
2017-09-19T08:03:42.049Z,9.83
2017-09-19T08:08:55.358Z,12.40
2017-09-19T08:11:22.930Z,16.63
2017-09-19T08:13:55.569Z,17.60
2017-09-19T08:16:23.155Z,14.63
2017-09-19T08:18:50.713Z,11.00
2017-09-19T08:21:18.258Z,10.50
2017-09-19T08:23:45.825Z,14.17
2017-09-19T08:26:13.397Z,10.37
2017-09-19T08:28:40.965Z,8.73
2017-09-19T08:31:08.509Z,10.53
2017-09-19T08:33:36.065Z,14.97
2017-09-19T08:36:03.649Z,11.43
2017-09-19T08:38:31.193Z,10.67
2017-09-19T08:40:58.733Z,9.93
2017-09-19T08:43:26.290Z,10.27
2017-09-19T08:45:53.838Z,9.07
2017-09-19T08:48:21.407Z,9.20
2017-09-19T08:50:48.967Z,12.30
2017-09-19T08:53:16.496Z,9.50
2017-09-19T08:55:44.808Z,9.23
2017-09-19T08:58:12.347Z,9.43
2017-09-19T09:00:39.931Z,14.00
2017-09-19T09:03:07.495Z,10.23
2017-09-19T09:05:35.065Z,9.87
2017-09-19T09:08:02.625Z,15.00
2017-09-19T09:10:30.184Z,9.70
2017-09-19T09:12:57.764Z,11.60
2017-09-19T09:15:25.341Z,12.57
2017-09-19T09:17:53.682Z,9.03
2017-09-19T09:20:21.236Z,14.53
2017-09-19T09:22:48.793Z,13.33
2017-09-19T09:25:16.397Z,10.20
2017-09-19T09:27:43.950Z,8.90
2017-09-19T09:30:11.529Z,9.87
2017-09-19T09:32:39.836Z,12.67
